Waskom, Texas
Current Conditions -  °F | °C
As of 6:56 AM on Saturday 20 Dec 2014 (Local Time) from KSHV Reporting Station
Overcast Overcast  
Wind Chill: 40°   Ceiling: 400
Heat Index: 45°   Visibility: 7mi
Dew Point: 43°   Wind: 9mph
Humidity: 93%   Direction: 20°NNE
Pressure: 30.23"   Gusts: NA
Location:  32.48°N, 94.06°W
Report Text: KSHV 201256Z 02008KT 7SM OVC004 07/06 A3023 RMK AO2 SLP235 T00720061
Loading
Personal Weather Stations






























Interactive Weather Map New forecast layout! Learn more

10-Day Weather Forecast

Advertisements
Track Severe Weather on mobile